Bafra, Turkey
Current Conditions -  °F | °C
As of 10:50 PM on Wednesday 26 Nov 2014 (Local Time) from LTFH Reporting Station
Moderate Rain Moderate Rain  
Wind Chill: 50°   Ceiling: 3000
Heat Index: 50°   Visibility: 4mi
Dew Point: 48°   Wind: 22mph
Humidity: 94%   Direction: 320°NW
Pressure: 30"   Gusts: NA
Location:  41.57°N, 35.89°E
Report Text: LTFH 261950Z 32019KT 6000 RA SCT008 BKN030 OVC090 10/09 Q1016 BECMG TL2050 NSW
Loading
Personal Weather Stations






























Interactive Weather Map New forecast layout! Learn more

10-Day Weather Forecast

Advertisements
Track Severe Weather on mobile